Time;durP1;ratioP1;P1;durP2;ratioP2;P2;SDS_P1;SDS_P2;PMS_P1;PMS_P2;Temp;Humidity;BMP_temperature;BMP_pressure;BME280_temperature;BME280_humidity;BME280_pressure;Samples;Min_cycle;Max_cycle;Signal;HPM_P1;HPM_P2
2022/10/05 00:01:59;;;;;;;9.80;4.45;;;16.70;99.90;;;;;;5096301;28;20472;-41
2022/10/05 00:04:27;;;;;;;7.80;4.75;;;16.70;99.90;;;;;;5090943;28;20515;-42
2022/10/05 00:06:59;;;;;;;9.68;5.07;;;16.70;99.90;;;;;;5075959;28;20021;-41
2022/10/05 00:09:30;;;;;;;5.95;3.83;;;16.60;99.90;;;;;;5076038;28;20056;-42
2022/10/05 00:11:56;;;;;;;7.20;4.43;;;16.70;99.90;;;;;;5076245;28;20515;-45
2022/10/05 00:14:32;;;;;;;9.05;3.75;;;16.70;99.90;;;;;;5095686;28;20048;-45
2022/10/05 00:16:57;;;;;;;8.80;4.15;;;16.70;99.90;;;;;;5088469;28;20528;-51
2022/10/05 00:19:28;;;;;;;4.00;2.85;;;16.70;99.90;;;;;;5089600;28;20104;-41
2022/10/05 00:22:00;;;;;;;7.82;3.58;;;16.70;99.90;;;;;;5089314;28;20040;-41
2022/10/05 00:24:25;;;;;;;5.53;3.75;;;16.70;99.90;;;;;;5088434;28;20463;-35
2022/10/05 00:26:51;;;;;;;5.20;3.65;;;16.70;99.90;;;;;;5086555;28;20031;-49
2022/10/05 00:29:22;;;;;;;8.07;3.05;;;16.70;99.90;;;;;;5083660;28;20084;-45
2022/10/05 00:31:49;;;;;;;6.75;4.45;;;16.70;99.90;;;;;;5095516;28;20031;-43
2022/10/05 00:34:15;;;;;;;9.00;3.33;;;16.60;99.90;;;;;;5088856;28;20025;-41
2022/10/05 00:36:42;;;;;;;5.43;3.25;;;16.70;99.90;;;;;;5088001;28;20352;-41
2022/10/05 00:39:07;;;;;;;3.85;3.33;;;16.60;99.90;;;;;;5077513;28;20540;-41
2022/10/05 00:41:42;;;;;;;6.32;3.25;;;16.70;99.90;;;;;;5095400;28;20020;-42
2022/10/05 00:44:07;;;;;;;5.88;3.13;;;16.60;99.90;;;;;;5094221;28;20522;-43
2022/10/05 00:47:04;;;;;;;4.75;3.38;;;16.60;99.90;;;;;;5089693;28;20029;-42
2022/10/05 00:49:48;;;;;;;7.60;2.63;;;16.60;99.90;;;;;;5094282;28;20039;-42
2022/10/05 00:52:20;;;;;;;8.55;3.15;;;16.60;99.90;;;;;;5092372;28;20020;-45
2022/10/05 00:55:25;;;;;;;5.82;3.33;;;16.70;99.90;;;;;;5093449;28;20032;-40
2022/10/05 00:58:16;;;;;;;8.95;2.83;;;16.60;99.90;;;;;;5088457;28;20512;-43
2022/10/05 01:01:10;;;;;;;5.38;3.13;;;16.60;99.90;;;;;;5085142;28;20054;-44
2022/10/05 01:03:47;;;;;;;2.70;2.30;;;16.50;99.90;;;;;;5072619;28;20504;-45
2022/10/05 01:06:16;;;;;;;;;;;16.50;99.90;;;;;;5094880;28;20023;-43
2022/10/05 01:09:14;;;;;;;5.32;2.83;;;16.50;99.90;;;;;;5089003;28;20002;-45
2022/10/05 01:11:58;;;;;;;3.97;2.70;;;16.50;99.90;;;;;;5056745;28;20511;-47
2022/10/05 01:14:37;;;;;;;5.05;3.15;;;16.60;99.90;;;;;;5090410;28;20527;-43
2022/10/05 01:17:08;;;;;;;3.03;2.65;;;16.60;99.90;;;;;;5094029;28;20017;-43
2022/10/05 01:19:53;;;;;;;4.30;2.60;;;16.60;99.90;;;;;;5085268;28;20020;-40
2022/10/05 01:22:44;;;;;;;2.88;2.58;;;16.60;99.90;;;;;;5090097;28;20032;-42
2022/10/05 01:25:40;;;;;;;5.40;2.60;;;16.60;99.90;;;;;;5052017;28;20040;-42
2022/10/05 01:28:24;;;;;;;2.40;2.20;;;16.60;99.90;;;;;;5068299;28;20484;-45
2022/10/05 01:31:14;;;;;;;6.85;3.08;;;16.50;99.90;;;;;;5084232;28;20024;-49
2022/10/05 01:33:50;;;;;;;7.88;3.97;;;16.50;99.90;;;;;;5084159;28;20035;-43
2022/10/05 01:36:30;;;;;;;6.50;3.17;;;16.50;99.90;;;;;;5093303;28;20028;-46
2022/10/05 01:39:18;;;;;;;5.15;4.00;;;16.50;99.90;;;;;;5092961;28;20483;-41
2022/10/05 01:41:56;;;;;;;6.90;4.05;;;16.50;99.90;;;;;;5093745;28;20027;-44
2022/10/05 01:44:32;;;;;;;6.63;3.45;;;16.40;99.90;;;;;;5080851;28;20032;-50
2022/10/05 01:47:06;;;;;;;5.38;4.20;;;16.40;99.90;;;;;;5083366;28;20020;-42
2022/10/05 01:49:51;;;;;;;8.55;4.05;;;16.40;99.90;;;;;;5090816;28;20028;-47
2022/10/05 01:52:45;;;;;;;8.13;3.88;;;16.30;99.90;;;;;;5092487;28;20028;-43
2022/10/05 01:55:14;;;;;;;7.18;4.45;;;16.30;99.90;;;;;;5080201;28;20030;-42
2022/10/05 01:58:21;;;;;;;6.88;4.05;;;16.30;99.90;;;;;;5091860;28;20048;-42
2022/10/05 02:01:02;;;;;;;8.02;4.03;;;16.30;99.90;;;;;;5023044;28;20474;-42
2022/10/05 02:03:35;;;;;;;7.85;4.65;;;16.40;99.90;;;;;;5088007;28;20047;-42
2022/10/05 02:06:12;;;;;;;6.97;4.05;;;16.30;99.90;;;;;;5092071;28;20024;-41
2022/10/05 02:09:02;;;;;;;6.63;3.88;;;16.30;99.90;;;;;;5090565;28;20553;-42
2022/10/05 02:11:27;;;;;;;12.57;5.13;;;16.30;99.90;;;;;;5076771;28;20036;-40
2022/10/05 02:14:09;;;;;;;12.95;5.45;;;16.20;99.90;;;;;;5083207;28;20024;-37
2022/10/05 02:16:44;;;;;;;9.82;4.95;;;16.20;99.90;;;;;;5088905;28;20495;-46
2022/10/05 02:19:13;;;;;;;8.73;4.40;;;16.20;99.90;;;;;;5076428;28;20024;-46
2022/10/05 02:21:42;;;;;;;17.80;5.07;;;16.20;99.90;;;;;;5082803;28;20070;-38
2022/10/05 02:24:16;;;;;;;9.88;5.40;;;16.20;99.90;;;;;;5062838;28;20044;-43
2022/10/05 02:26:41;;;;;;;12.57;5.60;;;16.20;99.90;;;;;;5088963;28;20029;-41
2022/10/05 02:29:11;;;;;;;10.65;5.88;;;16.10;99.90;;;;;;5089325;28;20054;-41
2022/10/05 02:31:39;;;;;;;8.00;4.90;;;16.10;99.90;;;;;;5085801;28;20032;-41
2022/10/05 02:34:23;;;;;;;9.90;5.20;;;16.00;99.90;;;;;;5076579;28;20031;-42
2022/10/05 02:37:16;;;;;;;13.25;5.38;;;16.00;99.90;;;;;;5087511;28;20024;-42
2022/10/05 02:39:46;;;;;;;10.88;5.28;;;16.00;99.90;;;;;;5086492;28;20028;-43
2022/10/05 02:42:22;;;;;;;10.80;5.22;;;15.90;99.90;;;;;;5081378;28;20435;-41
2022/10/05 02:44:56;;;;;;;10.73;5.60;;;15.80;99.90;;;;;;5092157;28;20109;-50
2022/10/05 02:47:21;;;;;;;12.88;5.88;;;15.80;99.90;;;;;;5087997;28;20029;-42
2022/10/05 02:49:55;;;;;;;6.88;4.90;;;15.80;99.90;;;;;;5078852;28;20031;-42
2022/10/05 02:52:34;;;;;;;8.27;4.85;;;15.90;99.90;;;;;;5084845;28;20549;-42
2022/10/05 02:55:22;;;;;;;12.75;5.57;;;15.90;99.90;;;;;;5093221;28;20024;-64
2022/10/05 02:58:06;;;;;;;13.38;5.20;;;15.90;99.90;;;;;;5079173;28;20491;-42
2022/10/05 03:00:37;;;;;;;10.82;5.55;;;15.80;99.90;;;;;;5084402;28;20032;-40
2022/10/05 03:03:11;;;;;;;14.70;5.07;;;15.80;99.90;;;;;;5074004;28;20499;-42
2022/10/05 03:05:45;;;;;;;9.88;5.43;;;15.80;99.90;;;;;;5054928;28;20036;-43
2022/10/05 03:08:38;;;;;;;13.60;5.78;;;15.80;99.90;;;;;;5090731;28;20024;-43
2022/10/05 03:11:24;;;;;;;9.20;5.35;;;15.80;99.90;;;;;;5091628;28;20020;-50
2022/10/05 03:14:01;;;;;;;9.38;5.40;;;15.80;99.90;;;;;;5083866;28;20507;-41
2022/10/05 03:16:35;;;;;;;7.60;5.28;;;15.70;99.90;;;;;;5078509;28;20054;-44
2022/10/05 03:19:38;;;;;;;13.85;5.63;;;15.70;99.90;;;;;;5086517;28;20036;-42
2022/10/05 03:22:40;;;;;;;7.72;4.95;;;15.70;99.90;;;;;;5063779;28;20045;-43
2022/10/05 03:25:24;;;;;;;13.50;4.85;;;15.70;99.90;;;;;;5065399;28;20063;-44
2022/10/05 03:28:06;;;;;;;10.35;4.70;;;15.70;99.90;;;;;;5077898;28;20033;-43
2022/10/05 03:30:40;;;;;;;10.43;5.43;;;15.80;99.90;;;;;;5091043;28;20054;-42
2022/10/05 03:33:36;;;;;;;8.10;4.63;;;15.70;99.90;;;;;;5089356;28;20500;-44
2022/10/05 03:36:23;;;;;;;9.90;5.33;;;15.80;99.90;;;;;;5085090;28;20044;-42
2022/10/05 03:39:02;;;;;;;9.45;5.18;;;15.80;99.90;;;;;;5083299;28;20702;-43
2022/10/05 03:41:27;;;;;;;7.85;4.75;;;15.80;99.90;;;;;;5080467;28;20016;-40
2022/10/05 03:44:20;;;;;;;7.65;4.70;;;15.80;99.90;;;;;;5096716;28;20537;-47
2022/10/05 03:47:07;;;;;;;9.55;5.68;;;15.90;99.90;;;;;;5079616;28;20392;-40
2022/10/05 03:49:36;;;;;;;12.43;4.90;;;15.90;99.90;;;;;;5096612;28;20039;-42
2022/10/05 03:52:11;;;;;;;7.53;4.70;;;15.90;99.90;;;;;;5092859;28;20502;-41
2022/10/05 03:54:47;;;;;;;12.68;5.03;;;15.90;99.90;;;;;;5061581;28;20032;-41
2022/10/05 03:57:20;;;;;;;12.20;5.60;;;15.90;99.90;;;;;;5078824;28;20392;-42
2022/10/05 03:59:59;;;;;;;7.57;4.65;;;16.00;99.90;;;;;;5075317;28;20047;-45
2022/10/05 04:02:43;;;;;;;7.95;4.18;;;16.00;99.90;;;;;;5069945;28;20067;-40
2022/10/05 04:05:09;;;;;;;18.52;4.68;;;16.00;99.90;;;;;;5068270;28;20463;-40
2022/10/05 04:07:45;;;;;;;10.18;5.00;;;15.90;99.90;;;;;;5093126;28;20066;-46
2022/10/05 04:10:30;;;;;;;14.95;4.95;;;15.90;99.90;;;;;;5089915;28;20028;-43
2022/10/05 04:13:20;;;;;;;6.25;4.15;;;15.90;99.90;;;;;;5094188;28;20123;-44
2022/10/05 04:16:01;;;;;;;6.90;3.95;;;15.90;99.90;;;;;;5094721;28;20032;-36
2022/10/05 04:18:49;;;;;;;9.75;4.18;;;16.00;99.90;;;;;;5086493;28;20038;-41
2022/10/05 04:21:30;;;;;;;7.45;4.25;;;16.00;99.90;;;;;;5081664;28;20418;-42
2022/10/05 04:23:58;;;;;;;6.68;4.40;;;16.00;99.90;;;;;;5093764;28;20654;-40
2022/10/05 04:26:40;;;;;;;6.45;4.30;;;16.00;99.90;;;;;;5089903;28;20036;-42
2022/10/05 04:29:05;;;;;;;9.75;3.88;;;16.00;99.90;;;;;;5074302;28;20508;-42
2022/10/05 04:31:55;;;;;;;4.07;3.35;;;16.00;99.90;;;;;;5088545;28;20043;-41
2022/10/05 04:34:42;;;;;;;8.75;3.10;;;16.00;99.90;;;;;;5074443;28;20504;-44
2022/10/05 04:37:32;;;;;;;6.70;3.60;;;15.90;99.90;;;;;;5088239;28;20032;-37
2022/10/05 04:40:25;;;;;;;8.02;4.32;;;15.90;99.90;;;;;;5089505;28;20034;-51
2022/10/05 04:43:11;;;;;;;8.23;3.58;;;16.00;99.90;;;;;;5089394;28;20054;-42
2022/10/05 04:45:52;;;;;;;4.53;2.80;;;16.00;99.90;;;;;;5086861;28;20153;-41
2022/10/05 04:48:29;;;;;;;3.22;2.80;;;16.00;99.90;;;;;;5092030;28;20035;-42
2022/10/05 04:51:42;;;;;;;3.47;2.58;;;16.00;99.90;;;;;;5085342;28;20020;-40
2022/10/05 04:54:52;;;;;;;2.38;2.17;;;16.00;99.90;;;;;;5080217;28;20352;-42
2022/10/05 04:57:36;;;;;;;3.05;1.88;;;16.00;99.90;;;;;;5041633;28;20583;-54
2022/10/05 05:00:05;;;;;;;2.53;2.10;;;16.00;99.90;;;;;;5081277;28;20460;-45
2022/10/05 05:03:09;;;;;;;3.38;2.00;;;16.00;99.90;;;;;;5078690;28;20434;-45
2022/10/05 05:06:00;;;;;;;3.92;2.00;;;16.00;99.90;;;;;;5024182;28;20604;-42
2022/10/05 05:08:48;;;;;;;1.67;1.58;;;16.10;99.90;;;;;;5089436;28;20083;-42
2022/10/05 05:11:13;;;;;;;4.18;1.80;;;16.10;99.90;;;;;;5085927;28;20038;-42
2022/10/05 05:13:57;;;;;;;2.30;1.63;;;16.10;99.90;;;;;;5092860;28;20476;-42
2022/10/05 05:16:42;;;;;;;5.22;1.25;;;16.10;99.90;;;;;;5084521;28;20024;-43
2022/10/05 05:19:24;;;;;;;1.52;1.42;;;16.10;99.90;;;;;;5093857;28;20027;-42
2022/10/05 05:22:10;;;;;;;1.48;1.30;;;16.10;99.90;;;;;;5092721;28;20388;-42
2022/10/05 05:24:54;;;;;;;1.45;1.10;;;16.10;99.90;;;;;;5093141;28;20396;-44
2022/10/05 05:27:50;;;;;;;1.77;1.00;;;16.10;99.90;;;;;;5076861;28;20561;-42
2022/10/05 05:30:21;;;;;;;1.60;0.93;;;16.10;99.90;;;;;;5045840;28;1110922;-43
2022/10/05 05:33:16;;;;;;;1.60;0.90;;;16.00;99.90;;;;;;5087583;28;20027;-43
2022/10/05 05:36:23;;;;;;;1.15;1.05;;;16.00;99.90;;;;;;5085614;28;20543;-42
2022/10/05 05:39:10;;;;;;;1.17;0.80;;;16.00;99.90;;;;;;5083311;28;20073;-41
2022/10/05 05:41:42;;;;;;;1.05;0.95;;;16.00;99.90;;;;;;5090391;28;20085;-42
2022/10/05 05:44:24;;;;;;;1.42;1.20;;;16.00;99.90;;;;;;5094440;28;20563;-44
2022/10/05 05:47:01;;;;;;;2.67;0.93;;;16.00;99.90;;;;;;5091423;28;20039;-50
2022/10/05 05:49:50;;;;;;;0.90;0.90;;;16.00;99.90;;;;;;5087950;28;20055;-42
2022/10/05 05:52:23;;;;;;;2.42;1.20;;;16.00;99.90;;;;;;5079840;28;20078;-42
2022/10/05 05:54:59;;;;;;;2.00;1.23;;;16.00;99.90;;;;;;5068783;28;20093;-42
2022/10/05 05:57:37;;;;;;;1.77;1.38;;;16.00;99.90;;;;;;5087653;28;20468;-43
2022/10/05 06:00:17;;;;;;;3.08;1.10;;;16.00;99.90;;;;;;5091496;28;20039;-42
2022/10/05 06:03:13;;;;;;;1.73;1.23;;;16.00;99.90;;;;;;5088277;28;20178;-42
2022/10/05 06:05:48;;;;;;;2.00;1.13;;;16.00;99.90;;;;;;5077556;28;20046;-43
2022/10/05 06:08:32;;;;;;;3.08;1.35;;;16.00;99.90;;;;;;5080348;28;20499;-41
2022/10/05 06:11:05;;;;;;;4.20;0.95;;;16.10;99.90;;;;;;5090185;28;20036;-41
2022/10/05 06:13:40;;;;;;;1.55;1.27;;;16.10;99.90;;;;;;5077702;28;20488;-44
2022/10/05 06:16:33;;;;;;;1.35;1.23;;;16.10;99.90;;;;;;5089916;28;20577;-39
2022/10/05 06:19:14;;;;;;;1.75;1.08;;;16.10;99.90;;;;;;5090951;28;20047;-43
2022/10/05 06:22:13;;;;;;;1.98;1.15;;;16.10;99.90;;;;;;5087311;28;20477;-41
2022/10/05 06:24:56;;;;;;;1.23;0.90;;;16.10;99.90;;;;;;5082949;28;20028;-44
2022/10/05 06:27:38;;;;;;;1.73;1.27;;;16.10;99.90;;;;;;5084744;28;20042;-40
2022/10/05 06:30:15;;;;;;;2.38;1.33;;;16.10;99.90;;;;;;5059152;28;20048;-39
2022/10/05 06:32:44;;;;;;;;;;;16.10;99.90;;;;;;5085962;28;20111;-43
2022/10/05 06:35:42;;;;;;;2.08;1.35;;;16.10;99.90;;;;;;5091334;28;20306;-35
2022/10/05 06:38:21;;;;;;;1.10;1.10;;;16.10;99.90;;;;;;5092222;28;20027;-40
2022/10/05 06:41:38;;;;;;;3.95;1.20;;;16.10;99.90;;;;;;5084941;28;20036;-38
2022/10/05 06:44:13;;;;;;;;;;;16.20;99.90;;;;;;5055910;28;20067;-42
2022/10/05 06:46:38;;;;;;;1.05;1.05;;;16.20;99.90;;;;;;5071746;28;19919;-44
2022/10/05 06:49:26;;;;;;;1.40;1.30;;;16.20;99.90;;;;;;5082658;28;20119;-44
2022/10/05 06:51:54;;;;;;;;;;;16.20;99.90;;;;;;5079605;28;20032;-42
2022/10/05 06:54:54;;;;;;;1.73;1.40;;;16.20;99.90;;;;;;5073310;28;19999;-40
2022/10/05 06:58:04;;;;;;;3.28;1.52;;;16.30;99.90;;;;;;5078841;28;20530;-44
2022/10/05 07:00:52;;;;;;;2.45;1.50;;;16.20;99.90;;;;;;5003056;28;20390;-44
2022/10/05 07:03:30;;;;;;;1.65;1.55;;;16.30;99.90;;;;;;5009348;28;20414;-43
2022/10/05 07:06:07;;;;;;;2.40;1.27;;;16.20;99.90;;;;;;5050490;28;20031;-42
2022/10/05 07:08:47;;;;;;;1.57;1.30;;;16.20;99.90;;;;;;5090918;28;20032;-41
2022/10/05 07:11:23;;;;;;;1.45;1.35;;;16.30;99.90;;;;;;5091114;28;20319;-42
2022/10/05 07:14:14;;;;;;;1.70;1.50;;;16.30;99.90;;;;;;5087385;28;20483;-42
2022/10/05 07:17:00;;;;;;;4.82;1.75;;;16.30;99.90;;;;;;5063766;28;20043;-42
2022/10/05 07:19:44;;;;;;;2.38;1.20;;;16.30;99.90;;;;;;5085547;28;20039;-41
2022/10/05 07:22:23;;;;;;;2.97;1.23;;;16.30;99.90;;;;;;5081381;28;20036;-45
2022/10/05 07:25:18;;;;;;;4.35;1.80;;;16.30;99.90;;;;;;5083237;28;20028;-47
2022/10/05 07:28:02;;;;;;;3.67;1.83;;;16.30;99.90;;;;;;5081252;28;20048;-43
2022/10/05 07:30:30;;;;;;;2.30;1.70;;;16.30;99.90;;;;;;5072768;28;20062;-43
2022/10/05 07:33:04;;;;;;;;;;;16.30;99.90;;;;;;5078106;28;20104;-44
2022/10/05 07:38:53;;;;;;;2.35;1.80;;;16.30;99.90;;;;;;5077188;28;20094;-45
2022/10/05 07:41:39;;;;;;;2.38;1.85;;;16.20;99.90;;;;;;5089714;28;20107;-42
2022/10/05 07:44:15;;;;;;;2.10;1.50;;;16.30;99.90;;;;;;5088502;28;20028;-41
2022/10/05 07:46:59;;;;;;;4.00;2.05;;;16.30;99.90;;;;;;5088094;28;20024;-45
2022/10/05 07:49:46;;;;;;;4.35;2.10;;;16.20;99.90;;;;;;5079507;28;20375;-44
2022/10/05 07:52:35;;;;;;;3.53;2.40;;;16.30;99.90;;;;;;5088415;28;20067;-40
2022/10/05 07:55:19;;;;;;;3.08;2.25;;;16.30;99.90;;;;;;5078011;28;20464;-44
2022/10/05 07:58:15;;;;;;;2.83;2.40;;;16.30;99.90;;;;;;5078461;28;20032;-43
2022/10/05 08:00:59;;;;;;;1.83;1.73;;;16.30;99.90;;;;;;5072415;28;20064;-44
2022/10/05 08:03:43;;;;;;;2.42;2.10;;;16.30;99.90;;;;;;5092678;28;20028;-34
2022/10/05 08:06:34;;;;;;;5.72;2.38;;;16.40;99.90;;;;;;5086626;28;20032;-39
2022/10/05 08:09:31;;;;;;;2.83;2.22;;;16.40;99.90;;;;;;5079162;28;20020;-55
2022/10/05 08:12:07;;;;;;;1.75;1.65;;;16.40;99.90;;;;;;5077479;28;20492;-34
2022/10/05 08:14:47;;;;;;;6.00;2.22;;;16.40;99.90;;;;;;5075798;28;20065;-37
2022/10/05 08:17:28;;;;;;;3.15;1.95;;;16.40;99.90;;;;;;5093652;28;20024;-37
2022/10/05 08:20:15;;;;;;;3.55;1.90;;;16.40;99.90;;;;;;5094975;28;20023;-35
2022/10/05 08:22:46;;;;;;;3.67;2.22;;;16.40;99.90;;;;;;5076933;28;20087;-37
2022/10/05 08:25:46;;;;;;;2.85;2.22;;;16.50;99.90;;;;;;5084892;28;20040;-36
2022/10/05 08:28:21;;;;;;;5.40;1.90;;;16.50;99.90;;;;;;5040729;28;20032;-35
2022/10/05 08:31:14;;;;;;;2.22;1.88;;;16.50;99.90;;;;;;5082793;28;20508;-32
2022/10/05 08:34:12;;;;;;;4.63;1.95;;;16.60;99.90;;;;;;5082901;28;20054;-35
2022/10/05 08:37:05;;;;;;;5.82;1.85;;;16.50;99.90;;;;;;5079022;28;20031;-38
2022/10/05 08:39:39;;;;;;;3.50;2.08;;;16.50;99.90;;;;;;5086499;28;20029;-33
2022/10/05 08:42:13;;;;;;;6.20;2.20;;;16.60;99.90;;;;;;5080966;28;20032;-37
2022/10/05 08:45:19;;;;;;;6.60;2.40;;;16.60;99.90;;;;;;5092557;28;20533;-33
2022/10/05 08:48:10;;;;;;;4.00;2.20;;;16.60;99.90;;;;;;5088981;28;20062;-51
2022/10/05 08:51:05;;;;;;;2.03;1.83;;;16.50;99.90;;;;;;5083134;28;20039;-39
2022/10/05 08:53:49;;;;;;;2.10;1.90;;;16.60;99.90;;;;;;5089574;28;20036;-41
2022/10/05 08:56:38;;;;;;;3.10;1.85;;;16.60;99.90;;;;;;5089416;28;20377;-35
2022/10/05 08:59:18;;;;;;;2.22;1.95;;;16.70;99.90;;;;;;5077318;28;20036;-43
2022/10/05 09:01:59;;;;;;;5.03;1.67;;;16.60;99.90;;;;;;5080024;28;20106;-35
2022/10/05 09:04:34;;;;;;;2.17;1.65;;;16.60;99.90;;;;;;5075998;28;20028;-35
2022/10/05 09:07:21;;;;;;;3.17;1.88;;;16.70;99.90;;;;;;5087829;28;20373;-40
2022/10/05 09:09:47;;;;;;;2.92;1.38;;;16.80;99.90;;;;;;5090219;28;20043;-33
2022/10/05 09:12:37;;;;;;;1.92;1.67;;;16.90;99.90;;;;;;5079927;28;20032;-38
2022/10/05 09:15:08;;;;;;;3.20;1.30;;;16.90;99.90;;;;;;5083311;28;20032;-39
2022/10/05 09:17:43;;;;;;;7.72;1.67;;;17.00;99.90;;;;;;5083441;28;20102;-35
2022/10/05 09:20:31;;;;;;;1.67;1.58;;;17.00;99.90;;;;;;5095160;28;20459;-37
2022/10/05 09:22:58;;;;;;;1.70;1.50;;;17.00;99.90;;;;;;5082535;28;20039;-41
2022/10/05 09:25:54;;;;;;;1.80;1.70;;;17.00;99.90;;;;;;5088607;28;20518;-34
2022/10/05 09:29:10;;;;;;;1.50;1.40;;;17.00;99.90;;;;;;5074778;28;20032;-37
2022/10/05 09:31:57;;;;;;;2.42;1.73;;;17.10;99.90;;;;;;5035879;28;20405;-47
2022/10/05 09:34:30;;;;;;;3.30;1.40;;;17.00;99.90;;;;;;5080567;28;20027;-38
2022/10/05 09:37:13;;;;;;;3.53;1.23;;;17.10;99.90;;;;;;5079978;28;20020;-33
2022/10/05 09:39:41;;;;;;;2.05;1.33;;;17.10;99.90;;;;;;5083862;28;20036;-33
2022/10/05 09:43:01;;;;;;;1.40;1.30;;;17.20;99.90;;;;;;5064417;28;20807;-35
2022/10/05 09:45:39;;;;;;;1.63;1.42;;;17.30;99.90;;;;;;5018218;28;20029;-36
2022/10/05 09:48:10;;;;;;;2.70;1.35;;;17.30;99.90;;;;;;5080300;28;20500;-38
2022/10/05 09:51:27;;;;;;;1.73;1.63;;;17.40;99.90;;;;;;5091722;28;20036;-32
2022/10/05 09:54:55;;;;;;;1.73;1.35;;;17.40;99.90;;;;;;5037099;28;20519;-39
2022/10/05 09:57:39;;;;;;;2.65;1.45;;;17.40;99.90;;;;;;5003491;28;20073;-40
2022/10/05 10:00:29;;;;;;;4.22;1.33;;;17.40;99.90;;;;;;5091991;28;20034;-37
2022/10/05 10:03:18;;;;;;;3.22;1.77;;;17.40;99.90;;;;;;5084255;28;20020;-41
2022/10/05 10:06:19;;;;;;;5.65;2.55;;;17.50;99.90;;;;;;5087533;28;20028;-42
2022/10/05 10:09:19;;;;;;;1.90;1.60;;;17.50;99.90;;;;;;5009413;28;20533;-35
2022/10/05 10:11:58;;;;;;;1.70;1.60;;;17.50;99.90;;;;;;5077478;28;20036;-35
2022/10/05 10:14:29;;;;;;;2.30;1.80;;;17.50;99.90;;;;;;5074652;28;20013;-36
2022/10/05 10:17:23;;;;;;;1.67;1.58;;;17.50;99.90;;;;;;5081859;28;20073;-40
2022/10/05 10:20:13;;;;;;;1.60;1.50;;;17.50;99.90;;;;;;5066955;28;20028;-32
2022/10/05 10:23:03;;;;;;;2.55;1.67;;;17.40;99.90;;;;;;5077896;28;20492;-38
2022/10/05 10:25:53;;;;;;;2.15;1.67;;;17.40;99.90;;;;;;5086451;28;20028;-37
2022/10/05 10:28:49;;;;;;;7.15;1.70;;;17.40;99.90;;;;;;5092613;28;20063;-41
2022/10/05 10:31:34;;;;;;;2.17;1.92;;;17.40;99.90;;;;;;5075070;28;20508;-43
2022/10/05 10:34:36;;;;;;;2.47;2.20;;;17.50;99.90;;;;;;5069999;28;20507;-35
2022/10/05 10:37:37;;;;;;;3.80;2.40;;;17.50;99.90;;;;;;5085854;28;20043;-44
2022/10/05 10:40:33;;;;;;;2.70;2.13;;;17.50;99.90;;;;;;5092121;28;20107;-37
2022/10/05 10:43:27;;;;;;;2.10;1.88;;;17.50;99.90;;;;;;5085673;28;20035;-34
2022/10/05 10:46:25;;;;;;;4.22;2.30;;;17.50;99.90;;;;;;5093318;28;20043;-42
2022/10/05 10:49:08;;;;;;;2.75;2.08;;;17.60;99.90;;;;;;5093420;28;20476;-40
2022/10/05 10:52:00;;;;;;;5.57;2.30;;;17.50;99.90;;;;;;5079257;28;20480;-41
2022/10/05 10:55:05;;;;;;;2.72;1.73;;;17.60;99.90;;;;;;5091018;28;20036;-41
2022/10/05 10:58:10;;;;;;;9.52;1.40;;;17.60;99.90;;;;;;5093167;28;20538;-35
2022/10/05 11:01:03;;;;;;;7.03;1.70;;;17.60;99.90;;;;;;5059787;28;20037;-40
2022/10/05 11:03:57;;;;;;;2.53;1.45;;;17.60;99.90;;;;;;5073747;28;20029;-36
2022/10/05 11:06:32;;;;;;;2.53;1.33;;;17.60;99.90;;;;;;5074897;28;20388;-33
2022/10/05 11:09:17;;;;;;;2.30;1.45;;;17.60;99.90;;;;;;5075533;28;20477;-36
2022/10/05 11:12:27;;;;;;;3.10;1.38;;;17.60;99.90;;;;;;5077401;28;20052;-37
2022/10/05 11:15:01;;;;;;;3.55;1.90;;;17.60;99.90;;;;;;5072439;28;20024;-55
2022/10/05 11:17:55;;;;;;;3.97;1.75;;;17.70;99.90;;;;;;5072771;28;20024;-48
2022/10/05 11:20:45;;;;;;;2.17;1.65;;;17.70;99.90;;;;;;5087095;28;20031;-34
2022/10/05 11:23:29;;;;;;;2.05;1.50;;;17.70;99.90;;;;;;5074074;28;20468;-33
2022/10/05 11:26:21;;;;;;;2.20;1.80;;;17.80;99.90;;;;;;5076067;28;20032;-33
2022/10/05 11:29:19;;;;;;;3.42;1.67;;;17.80;99.90;;;;;;5068551;28;20044;-34
2022/10/05 11:32:12;;;;;;;6.20;1.75;;;17.80;99.90;;;;;;5077996;28;20169;-38
2022/10/05 11:35:06;;;;;;;3.05;1.70;;;17.70;99.90;;;;;;5084955;28;20029;-32
2022/10/05 11:38:07;;;;;;;1.77;1.63;;;17.70;99.90;;;;;;5072524;28;20033;-34
2022/10/05 11:41:01;;;;;;;2.17;1.33;;;17.70;99.90;;;;;;5085218;28;20024;-37
2022/10/05 11:43:38;;;;;;;10.13;1.67;;;17.70;99.90;;;;;;5093079;28;20043;-46
2022/10/05 11:46:07;;;;;;;;;;;17.80;99.90;;;;;;5073106;28;20032;-42
2022/10/05 11:48:59;;;;;;;3.75;1.88;;;17.80;99.90;;;;;;5072506;28;20397;-42
2022/10/05 11:51:46;;;;;;;1.73;1.50;;;17.80;99.90;;;;;;5064351;28;20059;-41
2022/10/05 11:54:20;;;;;;;3.97;2.50;;;17.80;99.90;;;;;;5083099;28;20024;-42
2022/10/05 11:57:12;;;;;;;3.08;1.58;;;17.80;99.90;;;;;;5086976;28;20030;-41
2022/10/05 11:59:45;;;;;;;6.43;1.90;;;17.80;99.90;;;;;;5094216;28;20056;-42
2022/10/05 12:02:36;;;;;;;5.25;2.05;;;17.80;99.90;;;;;;5095031;28;20492;-41
2022/10/05 12:05:35;;;;;;;2.83;1.80;;;17.90;99.90;;;;;;5095325;28;20495;-41
2022/10/05 12:08:09;;;;;;;3.00;1.60;;;17.90;99.90;;;;;;5095166;28;20487;-41
2022/10/05 12:10:41;;;;;;;3.35;1.90;;;18.00;99.90;;;;;;5076081;28;20033;-44
2022/10/05 12:13:19;;;;;;;2.53;1.80;;;18.00;99.90;;;;;;5076782;28;20070;-43
2022/10/05 12:16:06;;;;;;;1.50;1.23;;;18.10;99.90;;;;;;5075907;28;20029;-48
2022/10/05 12:18:32;;;;;;;2.63;1.60;;;18.20;99.90;;;;;;5090007;28;20024;-39
2022/10/05 12:21:06;;;;;;;2.00;1.80;;;18.20;99.90;;;;;;5095474;28;20032;-41
2022/10/05 12:23:32;;;;;;;3.85;2.22;;;18.20;99.90;;;;;;5096058;28;20111;-40
2022/10/05 12:25:58;;;;;;;2.60;2.08;;;18.20;99.90;;;;;;5095965;28;20032;-52
2022/10/05 12:28:33;;;;;;;2.47;2.00;;;18.20;99.90;;;;;;5091387;28;20040;-42
2022/10/05 12:31:28;;;;;;;2.72;1.98;;;18.10;99.90;;;;;;5085844;28;20044;-49
2022/10/05 12:34:03;;;;;;;7.82;2.65;;;18.10;99.90;;;;;;5079175;28;20021;-41
2022/10/05 12:36:51;;;;;;;3.60;1.95;;;18.20;99.90;;;;;;5091172;28;20119;-35
2022/10/05 12:39:32;;;;;;;1.77;1.67;;;18.10;99.90;;;;;;5086107;28;20596;-39
2022/10/05 12:42:33;;;;;;;8.75;2.30;;;18.10;99.90;;;;;;5093154;28;20480;-34
2022/10/05 12:45:22;;;;;;;2.58;2.10;;;18.20;99.90;;;;;;5092474;28;20494;-38
2022/10/05 12:48:05;;;;;;;8.77;2.00;;;18.20;99.90;;;;;;5083003;28;20492;-35
2022/10/05 12:50:39;;;;;;;3.20;2.55;;;18.10;99.90;;;;;;5080242;28;20502;-36
2022/10/05 12:53:21;;;;;;;1.80;1.70;;;18.10;99.90;;;;;;5080832;28;20059;-33
2022/10/05 12:56:24;;;;;;;5.35;2.30;;;18.10;99.90;;;;;;5080719;28;20024;-38
2022/10/05 12:58:54;;;;;;;7.40;2.50;;;18.10;99.90;;;;;;5041525;28;20123;-34
2022/10/05 13:01:32;;;;;;;3.40;2.58;;;18.10;99.90;;;;;;5087870;28;20031;-37
2022/10/05 13:04:12;;;;;;;3.20;2.03;;;18.20;99.90;;;;;;5093386;28;20462;-37
2022/10/05 13:06:51;;;;;;;3.95;2.05;;;18.20;99.90;;;;;;5079403;28;20039;-34
2022/10/05 13:09:27;;;;;;;2.97;2.10;;;18.30;99.90;;;;;;5079361;28;20050;-37
2022/10/05 13:11:59;;;;;;;12.30;2.53;;;18.30;99.90;;;;;;5077862;28;20123;-32
2022/10/05 13:14:36;;;;;;;4.75;2.10;;;18.30;99.90;;;;;;5089288;28;20564;-37
2022/10/05 13:17:26;;;;;;;4.65;3.08;;;18.30;99.90;;;;;;5084286;28;20032;-37
2022/10/05 13:19:57;;;;;;;2.78;1.98;;;18.40;99.90;;;;;;5088535;28;20471;-34
2022/10/05 13:22:38;;;;;;;4.32;2.00;;;18.40;99.90;;;;;;5077300;28;20099;-35
2022/10/05 13:25:06;;;;;;;3.67;1.88;;;18.50;99.90;;;;;;5087468;28;20063;-33
2022/10/05 13:28:03;;;;;;;4.95;1.83;;;18.50;99.90;;;;;;5083967;28;20079;-32
2022/10/05 13:30:29;;;;;;;3.20;1.98;;;18.50;99.90;;;;;;5085415;28;20522;-40
2022/10/05 13:33:17;;;;;;;5.07;2.13;;;18.60;99.90;;;;;;5079745;28;20024;-39
2022/10/05 13:35:58;;;;;;;3.00;2.13;;;18.60;99.90;;;;;;5077547;28;20056;-37
2022/10/05 13:39:12;;;;;;;2.38;2.05;;;18.60;99.90;;;;;;5088296;28;20032;-33
2022/10/05 13:41:47;;;;;;;2.38;1.70;;;18.60;99.90;;;;;;5090724;28;20103;-35
2022/10/05 13:44:30;;;;;;;6.47;2.13;;;18.70;99.90;;;;;;5082329;28;20016;-35
2022/10/05 13:47:12;;;;;;;3.03;1.90;;;18.70;99.90;;;;;;5078494;28;20502;-36
2022/10/05 13:50:17;;;;;;;8.95;2.72;;;18.60;99.90;;;;;;5093482;28;20039;-35
2022/10/05 13:53:17;;;;;;;2.47;1.55;;;18.60;99.90;;;;;;5039304;28;20044;-39
2022/10/05 13:55:54;;;;;;;2.03;1.67;;;18.50;99.90;;;;;;5073943;28;20514;-35
2022/10/05 13:58:28;;;;;;;2.38;1.48;;;18.50;99.90;;;;;;5083112;28;20028;-35
2022/10/05 14:01:05;;;;;;;6.13;2.00;;;18.50;99.90;;;;;;5087913;28;20480;-36
2022/10/05 14:03:35;;;;;;;5.22;2.20;;;18.50;99.90;;;;;;5074915;28;20388;-36
2022/10/05 14:06:11;;;;;;;2.92;1.70;;;18.50;99.90;;;;;;5073902;28;20579;-33
2022/10/05 14:08:58;;;;;;;2.25;1.70;;;18.50;99.90;;;;;;5086212;28;20040;-38
2022/10/05 14:11:29;;;;;;;;;;;18.60;99.90;;;;;;5094596;28;20491;-35
2022/10/05 14:14:22;;;;;;;6.72;1.85;;;18.60;99.90;;;;;;5075064;28;19911;-37